sensor_id;sensor_type;location;lat;lon;timestamp;pressure;altitude;pressure_sealevel;temperature;humidity
2841;BME280;53423;49.224;12.074;2022-12-11T00:00:28;96944.59;;;1.57;66.02
2841;BME280;53423;49.224;12.074;2022-12-11T00:02:56;96940.50;;;1.54;66.14
2841;BME280;53423;49.224;12.074;2022-12-11T00:05:24;96944.31;;;1.60;65.58
2841;BME280;53423;49.224;12.074;2022-12-11T00:07:52;96939.97;;;1.60;65.10
2841;BME280;53423;49.224;12.074;2022-12-11T00:10:20;96943.16;;;1.73;64.43
2841;BME280;53423;49.224;12.074;2022-12-11T00:12:48;96936.28;;;1.53;65.24
2841;BME280;53423;49.224;12.074;2022-12-11T00:15:16;96938.53;;;1.47;65.48
2841;BME280;53423;49.224;12.074;2022-12-11T00:17:46;96935.16;;;1.46;64.72
2841;BME280;53423;49.224;12.074;2022-12-11T00:20:14;96928.19;;;1.67;64.94
2841;BME280;53423;49.224;12.074;2022-12-11T00:22:42;96932.75;;;1.54;64.73
2841;BME280;53423;49.224;12.074;2022-12-11T00:25:10;96937.97;;;1.64;65.09
2841;BME280;53423;49.224;12.074;2022-12-11T00:27:38;96941.56;;;1.52;65.66
2841;BME280;53423;49.224;12.074;2022-12-11T00:30:07;96937.31;;;1.41;66.20
2841;BME280;53423;49.224;12.074;2022-12-11T00:32:35;96952.84;;;1.30;66.33
2841;BME280;53423;49.224;12.074;2022-12-11T00:35:05;96961.03;;;1.35;66.46
2841;BME280;53423;49.224;12.074;2022-12-11T00:37:34;96952.13;;;1.28;66.08
2841;BME280;53423;49.224;12.074;2022-12-11T00:40:02;96958.19;;;1.17;66.22
2841;BME280;53423;49.224;12.074;2022-12-11T00:42:30;96954.53;;;1.20;66.67
2841;BME280;53423;49.224;12.074;2022-12-11T00:44:58;96966.56;;;1.31;66.42
2841;BME280;53423;49.224;12.074;2022-12-11T00:47:26;96964.81;;;1.31;66.16
2841;BME280;53423;49.224;12.074;2022-12-11T00:49:54;96963.88;;;1.32;65.80
2841;BME280;53423;49.224;12.074;2022-12-11T00:52:23;96971.34;;;1.35;65.71
2841;BME280;53423;49.224;12.074;2022-12-11T00:54:51;96978.59;;;1.20;66.45
2841;BME280;53423;49.224;12.074;2022-12-11T00:57:19;96984.00;;;1.17;66.22
2841;BME280;53423;49.224;12.074;2022-12-11T00:59:47;96974.59;;;1.16;66.39
2841;BME280;53423;49.224;12.074;2022-12-11T01:02:15;96981.28;;;1.19;66.88
2841;BME280;53423;49.224;12.074;2022-12-11T01:04:42;96980.69;;;1.47;66.10
2841;BME280;53423;49.224;12.074;2022-12-11T01:07:10;96980.22;;;1.42;66.13
2841;BME280;53423;49.224;12.074;2022-12-11T01:09:39;96986.44;;;1.40;65.62
2841;BME280;53423;49.224;12.074;2022-12-11T01:12:24;96987.78;;;1.34;65.88
2841;BME280;53423;49.224;12.074;2022-12-11T01:14:54;96991.56;;;1.30;65.73
2841;BME280;53423;49.224;12.074;2022-12-11T01:17:23;96997.78;;;1.27;65.77
2841;BME280;53423;49.224;12.074;2022-12-11T01:19:52;97001.03;;;1.29;65.59
2841;BME280;53423;49.224;12.074;2022-12-11T01:22:20;97001.63;;;1.54;65.02
2841;BME280;53423;49.224;12.074;2022-12-11T01:24:49;97007.75;;;1.53;64.78
2841;BME280;53423;49.224;12.074;2022-12-11T01:27:17;97001.88;;;1.30;65.30
2841;BME280;53423;49.224;12.074;2022-12-11T01:29:45;97002.44;;;1.34;65.67
2841;BME280;53423;49.224;12.074;2022-12-11T01:32:13;97004.06;;;1.35;65.76
2841;BME280;53423;49.224;12.074;2022-12-11T01:34:41;97011.81;;;1.35;65.71
2841;BME280;53423;49.224;12.074;2022-12-11T01:37:09;97013.03;;;1.31;65.81
2841;BME280;53423;49.224;12.074;2022-12-11T01:39:37;97010.31;;;1.32;65.75
2841;BME280;53423;49.224;12.074;2022-12-11T01:42:06;97011.81;;;1.35;65.86
2841;BME280;53423;49.224;12.074;2022-12-11T01:47:44;97005.34;;;1.40;65.68
2841;BME280;53423;49.224;12.074;2022-12-11T01:50:12;97000.38;;;1.48;65.27
2841;BME280;53423;49.224;12.074;2022-12-11T01:52:40;97001.63;;;1.33;64.98
2841;BME280;53423;49.224;12.074;2022-12-11T01:55:09;96994.56;;;1.35;65.92
2841;BME280;53423;49.224;12.074;2022-12-11T01:57:41;96995.09;;;1.50;65.39
2841;BME280;53423;49.224;12.074;2022-12-11T02:00:11;96999.41;;;1.28;65.81
2841;BME280;53423;49.224;12.074;2022-12-11T02:02:39;96996.84;;;1.28;66.54
2841;BME280;53423;49.224;12.074;2022-12-11T02:05:07;96989.94;;;1.29;65.83
2841;BME280;53423;49.224;12.074;2022-12-11T02:07:39;96995.16;;;1.39;65.08
2841;BME280;53423;49.224;12.074;2022-12-11T02:10:08;97002.16;;;1.48;64.97
2841;BME280;53423;49.224;12.074;2022-12-11T02:12:49;97007.06;;;1.51;64.93
2841;BME280;53423;49.224;12.074;2022-12-11T02:15:25;97006.94;;;1.52;65.50
2841;BME280;53423;49.224;12.074;2022-12-11T02:18:05;96995.53;;;1.55;65.07
2841;BME280;53423;49.224;12.074;2022-12-11T02:20:37;96996.88;;;1.49;65.00
2841;BME280;53423;49.224;12.074;2022-12-11T02:23:24;96994.03;;;1.52;64.24
2841;BME280;53423;49.224;12.074;2022-12-11T02:26:09;96994.19;;;1.40;65.30
2841;BME280;53423;49.224;12.074;2022-12-11T02:28:42;97000.06;;;1.62;64.18
2841;BME280;53423;49.224;12.074;2022-12-11T02:31:16;96998.81;;;1.57;64.90
2841;BME280;53423;49.224;12.074;2022-12-11T02:33:51;96993.84;;;1.44;64.85
2841;BME280;53423;49.224;12.074;2022-12-11T02:36:23;96995.41;;;1.36;65.67
2841;BME280;53423;49.224;12.074;2022-12-11T02:38:54;97000.59;;;1.56;64.39
2841;BME280;53423;49.224;12.074;2022-12-11T02:41:25;96997.00;;;1.48;63.99
2841;BME280;53423;49.224;12.074;2022-12-11T02:43:56;96987.66;;;1.36;64.68
2841;BME280;53423;49.224;12.074;2022-12-11T02:46:25;96986.22;;;1.43;64.97
2841;BME280;53423;49.224;12.074;2022-12-11T02:48:54;96979.66;;;1.39;64.35
2841;BME280;53423;49.224;12.074;2022-12-11T02:51:27;96981.66;;;1.35;64.91
2841;BME280;53423;49.224;12.074;2022-12-11T02:53:57;96976.03;;;1.41;64.04
2841;BME280;53423;49.224;12.074;2022-12-11T02:56:29;96973.88;;;1.46;63.79
2841;BME280;53423;49.224;12.074;2022-12-11T02:59:05;96982.16;;;1.50;63.96
2841;BME280;53423;49.224;12.074;2022-12-11T03:01:34;96973.63;;;1.28;64.77
2841;BME280;53423;49.224;12.074;2022-12-11T03:04:01;96982.72;;;1.12;65.14
2841;BME280;53423;49.224;12.074;2022-12-11T03:06:33;96978.75;;;1.08;64.87
2841;BME280;53423;49.224;12.074;2022-12-11T03:09:03;96977.72;;;0.99;65.93
2841;BME280;53423;49.224;12.074;2022-12-11T03:11:31;96974.94;;;0.91;64.95
2841;BME280;53423;49.224;12.074;2022-12-11T03:14:00;96975.06;;;0.90;65.82
2841;BME280;53423;49.224;12.074;2022-12-11T03:16:33;96970.56;;;1.03;65.37
2841;BME280;53423;49.224;12.074;2022-12-11T03:19:09;96979.66;;;0.86;65.10
2841;BME280;53423;49.224;12.074;2022-12-11T03:21:43;96969.25;;;0.77;65.32
2841;BME280;53423;49.224;12.074;2022-12-11T03:24:14;96972.75;;;0.87;65.48
2841;BME280;53423;49.224;12.074;2022-12-11T03:26:49;96975.00;;;0.69;66.17
2841;BME280;53423;49.224;12.074;2022-12-11T03:29:28;96987.56;;;0.63;65.68
2841;BME280;53423;49.224;12.074;2022-12-11T03:32:02;96987.84;;;0.49;66.52
2841;BME280;53423;49.224;12.074;2022-12-11T03:34:37;96985.09;;;0.61;65.72
2841;BME280;53423;49.224;12.074;2022-12-11T03:37:09;96985.69;;;0.65;65.06
2841;BME280;53423;49.224;12.074;2022-12-11T03:39:40;96989.91;;;0.66;65.69
2841;BME280;53423;49.224;12.074;2022-12-11T03:42:12;96987.78;;;0.71;64.86
2841;BME280;53423;49.224;12.074;2022-12-11T03:44:46;96995.63;;;0.69;65.06
2841;BME280;53423;49.224;12.074;2022-12-11T03:47:18;97006.34;;;0.54;65.59
2841;BME280;53423;49.224;12.074;2022-12-11T03:49:47;97004.84;;;0.18;66.52
2841;BME280;53423;49.224;12.074;2022-12-11T03:52:16;97004.72;;;0.20;66.82
2841;BME280;53423;49.224;12.074;2022-12-11T03:54:45;97000.50;;;0.08;67.38
2841;BME280;53423;49.224;12.074;2022-12-11T03:57:18;97002.88;;;0.22;66.50
2841;BME280;53423;49.224;12.074;2022-12-11T03:59:49;97002.38;;;0.06;67.37
2841;BME280;53423;49.224;12.074;2022-12-11T04:02:17;97005.91;;;0.05;67.43
2841;BME280;53423;49.224;12.074;2022-12-11T04:04:45;96997.81;;;-0.02;67.32
2841;BME280;53423;49.224;12.074;2022-12-11T04:07:13;96990.22;;;0.08;67.40
2841;BME280;53423;49.224;12.074;2022-12-11T04:09:40;97000.03;;;0.14;66.90
2841;BME280;53423;49.224;12.074;2022-12-11T04:12:08;96995.47;;;0.06;66.89
2841;BME280;53423;49.224;12.074;2022-12-11T04:14:36;96998.41;;;0.02;67.46
2841;BME280;53423;49.224;12.074;2022-12-11T04:17:23;97002.84;;;-0.01;67.13
2841;BME280;53423;49.224;12.074;2022-12-11T04:20:09;96996.50;;;0.26;66.26
2841;BME280;53423;49.224;12.074;2022-12-11T04:23:02;97000.50;;;0.19;66.11
2841;BME280;53423;49.224;12.074;2022-12-11T04:25:48;97001.00;;;0.02;66.48
2841;BME280;53423;49.224;12.074;2022-12-11T04:28:15;96996.78;;;0.12;66.77
2841;BME280;53423;49.224;12.074;2022-12-11T04:30:47;96997.81;;;0.31;66.02
2841;BME280;53423;49.224;12.074;2022-12-11T04:33:17;96999.56;;;0.20;66.59
2841;BME280;53423;49.224;12.074;2022-12-11T04:35:45;96994.53;;;-0.04;67.59
2841;BME280;53423;49.224;12.074;2022-12-11T04:38:12;96990.53;;;-0.08;66.62
2841;BME280;53423;49.224;12.074;2022-12-11T04:40:40;96995.59;;;0.05;66.47
2841;BME280;53423;49.224;12.074;2022-12-11T04:43:08;96995.59;;;-0.18;67.68
2841;BME280;53423;49.224;12.074;2022-12-11T04:45:36;96990.03;;;-0.35;68.11
2841;BME280;53423;49.224;12.074;2022-12-11T04:48:04;96991.94;;;-0.37;68.36
2841;BME280;53423;49.224;12.074;2022-12-11T04:50:33;96989.97;;;-0.12;67.03
2841;BME280;53423;49.224;12.074;2022-12-11T04:53:01;96990.06;;;-0.24;67.84
2841;BME280;53423;49.224;12.074;2022-12-11T04:55:29;96989.47;;;-0.28;67.68
2841;BME280;53423;49.224;12.074;2022-12-11T04:57:57;96988.78;;;0.03;67.58
2841;BME280;53423;49.224;12.074;2022-12-11T05:00:24;96988.13;;;0.02;67.46
2841;BME280;53423;49.224;12.074;2022-12-11T05:02:52;96989.38;;;-0.04;68.06
2841;BME280;53423;49.224;12.074;2022-12-11T05:05:20;96991.50;;;-0.09;67.02
2841;BME280;53423;49.224;12.074;2022-12-11T05:07:49;96990.66;;;-0.21;67.85
2841;BME280;53423;49.224;12.074;2022-12-11T05:10:17;97000.97;;;-0.10;67.69
2841;BME280;53423;49.224;12.074;2022-12-11T05:12:45;96988.69;;;-0.06;67.51
2841;BME280;53423;49.224;12.074;2022-12-11T05:15:12;96991.03;;;-0.14;67.14
2841;BME280;53423;49.224;12.074;2022-12-11T05:17:40;96990.06;;;-0.24;67.98
2841;BME280;53423;49.224;12.074;2022-12-11T05:20:08;96987.59;;;-0.48;68.62
2841;BME280;53423;49.224;12.074;2022-12-11T05:22:37;96985.28;;;-0.29;68.34
2841;BME280;53423;49.224;12.074;2022-12-11T05:25:07;96985.88;;;-0.14;67.25
2841;BME280;53423;49.224;12.074;2022-12-11T05:27:35;96983.94;;;-0.45;67.47
2841;BME280;53423;49.224;12.074;2022-12-11T05:30:04;96980.22;;;-0.41;67.59
2841;BME280;53423;49.224;12.074;2022-12-11T05:32:31;96986.19;;;-0.41;67.29
2841;BME280;53423;49.224;12.074;2022-12-11T05:34:59;96983.03;;;-0.44;67.11
2841;BME280;53423;49.224;12.074;2022-12-11T05:37:27;96988.50;;;-0.49;66.97
2841;BME280;53423;49.224;12.074;2022-12-11T05:39:55;96988.84;;;-0.53;66.92
2841;BME280;53423;49.224;12.074;2022-12-11T05:42:24;96995.31;;;-0.48;66.14
2841;BME280;53423;49.224;12.074;2022-12-11T05:44:54;96986.38;;;-0.66;66.39
2841;BME280;53423;49.224;12.074;2022-12-11T05:47:22;96985.31;;;-0.74;67.48
2841;BME280;53423;49.224;12.074;2022-12-11T05:49:51;96988.03;;;-0.88;67.20
2841;BME280;53423;49.224;12.074;2022-12-11T05:52:18;96982.00;;;-0.76;67.33
2841;BME280;53423;49.224;12.074;2022-12-11T05:54:47;96982.50;;;-0.71;66.78
2841;BME280;53423;49.224;12.074;2022-12-11T05:57:15;96983.66;;;-0.99;67.70
2841;BME280;53423;49.224;12.074;2022-12-11T05:59:44;96988.31;;;-0.80;67.21
2841;BME280;53423;49.224;12.074;2022-12-11T06:02:12;96982.41;;;-0.93;66.93
2841;BME280;53423;49.224;12.074;2022-12-11T06:04:40;96976.28;;;-1.14;67.70
2841;BME280;53423;49.224;12.074;2022-12-11T06:07:08;96983.50;;;-1.19;67.74
2841;BME280;53423;49.224;12.074;2022-12-11T06:09:36;96980.84;;;-1.07;68.15
2841;BME280;53423;49.224;12.074;2022-12-11T06:12:04;96980.72;;;-1.05;67.73
2841;BME280;53423;49.224;12.074;2022-12-11T06:14:31;96979.88;;;-1.17;67.22
2841;BME280;53423;49.224;12.074;2022-12-11T06:17:01;96985.84;;;-1.16;67.68
2841;BME280;53423;49.224;12.074;2022-12-11T06:19:28;96989.66;;;-1.22;68.39
2841;BME280;53423;49.224;12.074;2022-12-11T06:22:02;96981.94;;;-1.22;68.26
2841;BME280;53423;49.224;12.074;2022-12-11T06:24:30;96986.81;;;-1.06;68.48
2841;BME280;53423;49.224;12.074;2022-12-11T06:26:58;96981.44;;;-1.03;68.79
2841;BME280;53423;49.224;12.074;2022-12-11T06:29:25;96986.91;;;-0.84;68.43
2841;BME280;53423;49.224;12.074;2022-12-11T06:31:53;96989.44;;;-0.61;68.21
2841;BME280;53423;49.224;12.074;2022-12-11T06:34:22;96987.78;;;-0.62;67.92
2841;BME280;53423;49.224;12.074;2022-12-11T06:36:50;96994.09;;;-0.55;68.10
2841;BME280;53423;49.224;12.074;2022-12-11T06:39:18;96994.84;;;-0.42;67.44
2841;BME280;53423;49.224;12.074;2022-12-11T06:41:46;96991.72;;;-0.23;67.07
2841;BME280;53423;49.224;12.074;2022-12-11T06:44:13;96987.63;;;-0.26;67.01
2841;BME280;53423;49.224;12.074;2022-12-11T06:46:41;96983.88;;;-0.33;67.63
2841;BME280;53423;49.224;12.074;2022-12-11T06:49:09;96979.91;;;-0.15;66.45
2841;BME280;53423;49.224;12.074;2022-12-11T06:51:38;96978.25;;;-0.27;67.88
2841;BME280;53423;49.224;12.074;2022-12-11T06:54:06;96986.78;;;-0.15;67.35
2841;BME280;53423;49.224;12.074;2022-12-11T06:56:34;96987.50;;;-0.13;67.63
2841;BME280;53423;49.224;12.074;2022-12-11T06:59:01;96985.75;;;-0.13;67.58
2841;BME280;53423;49.224;12.074;2022-12-11T07:01:33;96982.13;;;0.01;67.47
2841;BME280;53423;49.224;12.074;2022-12-11T07:04:00;96989.28;;;-0.03;66.96
2841;BME280;53423;49.224;12.074;2022-12-11T07:06:28;96981.31;;;0.00;67.31
2841;BME280;53423;49.224;12.074;2022-12-11T07:08:58;96988.56;;;0.18;66.81
2841;BME280;53423;49.224;12.074;2022-12-11T07:11:28;96982.81;;;0.14;66.35
2841;BME280;53423;49.224;12.074;2022-12-11T07:13:57;96986.59;;;0.10;67.06
2841;BME280;53423;49.224;12.074;2022-12-11T07:16:25;96988.56;;;0.18;66.48
2841;BME280;53423;49.224;12.074;2022-12-11T07:18:53;96993.81;;;0.27;66.17
2841;BME280;53423;49.224;12.074;2022-12-11T07:21:21;96997.69;;;0.44;65.62
2841;BME280;53423;49.224;12.074;2022-12-11T07:23:49;97007.28;;;0.42;64.92
2841;BME280;53423;49.224;12.074;2022-12-11T07:26:20;97013.81;;;0.68;64.70
2841;BME280;53423;49.224;12.074;2022-12-11T07:28:48;97012.66;;;0.50;64.44
2841;BME280;53423;49.224;12.074;2022-12-11T07:31:19;97013.34;;;0.63;64.42
2841;BME280;53423;49.224;12.074;2022-12-11T07:33:51;97013.44;;;0.72;64.30
2841;BME280;53423;49.224;12.074;2022-12-11T07:36:19;97008.47;;;0.91;63.91
2841;BME280;53423;49.224;12.074;2022-12-11T07:38:47;96996.41;;;1.23;62.54
2841;BME280;53423;49.224;12.074;2022-12-11T07:41:15;97000.69;;;1.34;62.24
2841;BME280;53423;49.224;12.074;2022-12-11T07:43:45;96992.22;;;2.24;59.84
2841;BME280;53423;49.224;12.074;2022-12-11T07:46:14;96988.59;;;2.95;56.42
2841;BME280;53423;49.224;12.074;2022-12-11T07:48:44;96985.47;;;3.29;55.35
2841;BME280;53423;49.224;12.074;2022-12-11T07:51:14;96988.63;;;3.14;55.90
2841;BME280;53423;49.224;12.074;2022-12-11T07:53:43;96976.16;;;3.74;55.17
2841;BME280;53423;49.224;12.074;2022-12-11T07:56:11;96973.31;;;5.13;50.79
2841;BME280;53423;49.224;12.074;2022-12-11T07:58:39;96971.56;;;6.00;47.57
2841;BME280;53423;49.224;12.074;2022-12-11T08:01:11;96969.91;;;6.50;46.14
2841;BME280;53423;49.224;12.074;2022-12-11T08:03:40;96971.63;;;8.36;41.43
2841;BME280;53423;49.224;12.074;2022-12-11T08:06:09;96975.81;;;9.67;38.43
2841;BME280;53423;49.224;12.074;2022-12-11T08:08:38;96977.53;;;10.27;36.61
2841;BME280;53423;49.224;12.074;2022-12-11T08:11:08;96976.19;;;10.16;37.31
2841;BME280;53423;49.224;12.074;2022-12-11T08:13:36;96972.50;;;10.69;35.51
2841;BME280;53423;49.224;12.074;2022-12-11T08:16:06;96970.50;;;12.05;32.72
2841;BME280;53423;49.224;12.074;2022-12-11T08:18:36;96971.28;;;12.68;32.10
2841;BME280;53423;49.224;12.074;2022-12-11T08:21:05;96969.69;;;13.14;31.41
2841;BME280;53423;49.224;12.074;2022-12-11T08:23:33;96968.25;;;11.60;32.19
2841;BME280;53423;49.224;12.074;2022-12-11T08:26:02;96972.75;;;10.88;34.06
2841;BME280;53423;49.224;12.074;2022-12-11T08:28:31;96959.91;;;11.50;33.44
2841;BME280;53423;49.224;12.074;2022-12-11T08:30:59;96966.56;;;11.53;32.29
2841;BME280;53423;49.224;12.074;2022-12-11T08:33:27;96969.59;;;12.19;31.98
2841;BME280;53423;49.224;12.074;2022-12-11T08:35:56;96959.50;;;13.84;29.45
2841;BME280;53423;49.224;12.074;2022-12-11T08:38:24;96962.66;;;14.64;27.06
2841;BME280;53423;49.224;12.074;2022-12-11T08:40:51;96970.22;;;12.56;30.84
2841;BME280;53423;49.224;12.074;2022-12-11T08:43:19;96970.91;;;13.18;28.93
2841;BME280;53423;49.224;12.074;2022-12-11T08:45:47;96970.78;;;13.39;29.25
2841;BME280;53423;49.224;12.074;2022-12-11T08:48:15;96965.63;;;15.32;25.28
2841;BME280;53423;49.224;12.074;2022-12-11T08:50:43;96965.09;;;17.73;22.90
2841;BME280;53423;49.224;12.074;2022-12-11T08:53:12;96960.34;;;18.39;21.96
2841;BME280;53423;49.224;12.074;2022-12-11T08:55:40;96958.09;;;19.05;20.35
2841;BME280;53423;49.224;12.074;2022-12-11T08:58:08;96959.78;;;20.62;18.54
2841;BME280;53423;49.224;12.074;2022-12-11T09:00:35;96957.00;;;20.35;18.29
2841;BME280;53423;49.224;12.074;2022-12-11T09:03:03;96963.28;;;21.01;17.76
2841;BME280;53423;49.224;12.074;2022-12-11T09:05:38;96962.50;;;21.22;17.05
2841;BME280;53423;49.224;12.074;2022-12-11T09:08:06;96959.75;;;21.65;17.32
2841;BME280;53423;49.224;12.074;2022-12-11T09:10:35;96965.38;;;21.42;17.09
2841;BME280;53423;49.224;12.074;2022-12-11T09:13:03;96962.34;;;22.50;16.80
2841;BME280;53423;49.224;12.074;2022-12-11T09:15:31;96969.63;;;21.91;16.60
2841;BME280;53423;49.224;12.074;2022-12-11T09:17:58;96965.22;;;20.50;18.24
2841;BME280;53423;49.224;12.074;2022-12-11T09:20:26;96969.19;;;20.86;17.74
2841;BME280;53423;49.224;12.074;2022-12-11T09:22:54;96960.63;;;19.51;19.37
2841;BME280;53423;49.224;12.074;2022-12-11T09:25:22;96963.94;;;15.50;23.67
2841;BME280;53423;49.224;12.074;2022-12-11T09:27:51;96969.88;;;14.88;25.91
2841;BME280;53423;49.224;12.074;2022-12-11T09:30:19;96973.44;;;14.56;25.92
2841;BME280;53423;49.224;12.074;2022-12-11T09:32:47;96971.56;;;15.65;24.45
2841;BME280;53423;49.224;12.074;2022-12-11T09:35:15;96974.81;;;13.35;27.91
2841;BME280;53423;49.224;12.074;2022-12-11T09:37:42;96985.66;;;12.37;30.01
2841;BME280;53423;49.224;12.074;2022-12-11T09:40:11;96979.81;;;12.42;29.52
2841;BME280;53423;49.224;12.074;2022-12-11T09:42:48;96982.72;;;13.48;27.99
2841;BME280;53423;49.224;12.074;2022-12-11T09:45:19;96978.66;;;10.61;32.31
2841;BME280;53423;49.224;12.074;2022-12-11T09:47:49;96985.28;;;9.23;35.45
2841;BME280;53423;49.224;12.074;2022-12-11T09:50:21;96979.88;;;7.77;39.67
2841;BME280;53423;49.224;12.074;2022-12-11T09:52:59;96980.53;;;7.30;41.15
2841;BME280;53423;49.224;12.074;2022-12-11T09:55:35;96974.69;;;6.79;42.20
2841;BME280;53423;49.224;12.074;2022-12-11T09:58:14;96982.78;;;6.26;43.23
2841;BME280;53423;49.224;12.074;2022-12-11T10:00:48;96978.06;;;5.96;44.46
2841;BME280;53423;49.224;12.074;2022-12-11T10:03:39;96982.56;;;5.51;46.32
2841;BME280;53423;49.224;12.074;2022-12-11T10:06:16;96968.69;;;5.25;46.72
2841;BME280;53423;49.224;12.074;2022-12-11T10:08:55;96970.41;;;5.16;47.48
2841;BME280;53423;49.224;12.074;2022-12-11T10:11:36;96968.91;;;4.96;47.38
2841;BME280;53423;49.224;12.074;2022-12-11T10:14:13;96970.00;;;4.76;48.02
2841;BME280;53423;49.224;12.074;2022-12-11T10:16:47;96960.94;;;4.62;49.03
2841;BME280;53423;49.224;12.074;2022-12-11T10:19:18;96960.66;;;4.38;49.78
2841;BME280;53423;49.224;12.074;2022-12-11T10:21:48;96959.22;;;4.53;49.58
2841;BME280;53423;49.224;12.074;2022-12-11T10:24:23;96960.69;;;4.29;50.48
2841;BME280;53423;49.224;12.074;2022-12-11T10:27:14;96959.41;;;4.42;50.26
2841;BME280;53423;49.224;12.074;2022-12-11T10:29:45;96950.53;;;4.45;49.75
2841;BME280;53423;49.224;12.074;2022-12-11T10:32:21;96954.41;;;4.31;50.35
2841;BME280;53423;49.224;12.074;2022-12-11T10:34:53;96948.91;;;4.07;50.45
2841;BME280;53423;49.224;12.074;2022-12-11T10:37:23;96950.03;;;3.95;51.51
2841;BME280;53423;49.224;12.074;2022-12-11T10:39:51;96940.97;;;3.72;51.47
2841;BME280;53423;49.224;12.074;2022-12-11T10:42:20;96942.19;;;3.77;51.93
2841;BME280;53423;49.224;12.074;2022-12-11T10:44:59;96947.13;;;3.61;52.11
2841;BME280;53423;49.224;12.074;2022-12-11T10:47:29;96938.16;;;3.46;54.04
2841;BME280;53423;49.224;12.074;2022-12-11T10:50:00;96946.63;;;3.29;54.64
2841;BME280;53423;49.224;12.074;2022-12-11T10:52:31;96934.94;;;3.16;55.10
2841;BME280;53423;49.224;12.074;2022-12-11T10:55:02;96939.84;;;3.00;54.87
2841;BME280;53423;49.224;12.074;2022-12-11T10:57:33;96931.81;;;2.93;56.31
2841;BME280;53423;49.224;12.074;2022-12-11T11:00:04;96940.41;;;3.22;55.50
2841;BME280;53423;49.224;12.074;2022-12-11T11:02:35;96936.84;;;3.23;55.08
2841;BME280;53423;49.224;12.074;2022-12-11T11:05:11;96935.31;;;3.40;53.08
2841;BME280;53423;49.224;12.074;2022-12-11T11:07:40;96927.38;;;3.60;52.50
2841;BME280;53423;49.224;12.074;2022-12-11T11:10:14;96924.81;;;3.51;53.00
2841;BME280;53423;49.224;12.074;2022-12-11T11:12:45;96922.13;;;3.24;52.83
2841;BME280;53423;49.224;12.074;2022-12-11T11:15:15;96908.75;;;3.28;53.36
2841;BME280;53423;49.224;12.074;2022-12-11T11:17:47;96909.31;;;3.22;53.29
2841;BME280;53423;49.224;12.074;2022-12-11T11:20:22;96902.63;;;3.20;52.36
2841;BME280;53423;49.224;12.074;2022-12-11T11:22:54;96906.88;;;3.11;51.59
2841;BME280;53423;49.224;12.074;2022-12-11T11:25:24;96906.88;;;3.11;51.86
2841;BME280;53423;49.224;12.074;2022-12-11T11:27:54;96899.09;;;3.11;51.81
2841;BME280;53423;49.224;12.074;2022-12-11T11:30:25;96893.81;;;3.03;53.57
2841;BME280;53423;49.224;12.074;2022-12-11T11:32:58;96889.97;;;3.17;53.64
2841;BME280;53423;49.224;12.074;2022-12-11T11:35:29;96886.75;;;3.51;51.84
2841;BME280;53423;49.224;12.074;2022-12-11T11:38:02;96883.41;;;4.15;50.11
2841;BME280;53423;49.224;12.074;2022-12-11T11:40:35;96874.38;;;6.59;43.23
2841;BME280;53423;49.224;12.074;2022-12-11T11:43:09;96868.53;;;6.07;43.63
2841;BME280;53423;49.224;12.074;2022-12-11T11:45:44;96858.13;;;6.07;44.21
2841;BME280;53423;49.224;12.074;2022-12-11T11:48:24;96858.59;;;6.44;41.57
2841;BME280;53423;49.224;12.074;2022-12-11T11:50:55;96839.25;;;7.59;38.12
2841;BME280;53423;49.224;12.074;2022-12-11T11:53:30;96840.25;;;6.78;40.18
2841;BME280;53423;49.224;12.074;2022-12-11T11:56:02;96829.00;;;6.53;39.35
2841;BME280;53423;49.224;12.074;2022-12-11T11:58:38;96835.84;;;6.54;38.75
2841;BME280;53423;49.224;12.074;2022-12-11T12:01:12;96831.94;;;11.03;30.22
2841;BME280;53423;49.224;12.074;2022-12-11T12:03:43;96829.13;;;12.82;26.94
2841;BME280;53423;49.224;12.074;2022-12-11T12:06:16;96841.06;;;9.12;31.81
2841;BME280;53423;49.224;12.074;2022-12-11T12:08:55;96841.38;;;7.31;34.02
2841;BME280;53423;49.224;12.074;2022-12-11T12:11:32;96846.66;;;6.25;37.62
2841;BME280;53423;49.224;12.074;2022-12-11T12:14:12;96847.88;;;5.46;40.19
2841;BME280;53423;49.224;12.074;2022-12-11T12:17:10;96846.81;;;4.88;41.74
2841;BME280;53423;49.224;12.074;2022-12-11T12:19:50;96848.91;;;4.32;40.82
2841;BME280;53423;49.224;12.074;2022-12-11T12:22:35;96852.81;;;3.91;41.43
2841;BME280;53423;49.224;12.074;2022-12-11T12:25:15;96854.50;;;3.36;44.62
2841;BME280;53423;49.224;12.074;2022-12-11T12:27:54;96847.72;;;3.26;45.44
2841;BME280;53423;49.224;12.074;2022-12-11T12:30:30;96858.69;;;3.01;47.79
2841;BME280;53423;49.224;12.074;2022-12-11T12:33:13;96859.63;;;2.33;51.30
2841;BME280;53423;49.224;12.074;2022-12-11T12:35:52;96862.91;;;1.95;53.71
2841;BME280;53423;49.224;12.074;2022-12-11T12:38:37;96866.06;;;2.08;53.48
2841;BME280;53423;49.224;12.074;2022-12-11T12:41:13;96861.22;;;2.15;54.01
2841;BME280;53423;49.224;12.074;2022-12-11T12:43:59;96854.25;;;2.15;55.16
2841;BME280;53423;49.224;12.074;2022-12-11T12:46:39;96861.78;;;2.37;54.60
2841;BME280;53423;49.224;12.074;2022-12-11T12:49:12;96857.97;;;2.22;55.59
2841;BME280;53423;49.224;12.074;2022-12-11T12:51:44;96854.84;;;2.28;55.12
2841;BME280;53423;49.224;12.074;2022-12-11T12:54:14;96854.44;;;2.52;54.53
2841;BME280;53423;49.224;12.074;2022-12-11T12:56:44;96848.31;;;2.63;53.90
2841;BME280;53423;49.224;12.074;2022-12-11T12:59:20;96845.44;;;2.37;54.66
2841;BME280;53423;49.224;12.074;2022-12-11T13:01:50;96834.16;;;2.47;54.99
2841;BME280;53423;49.224;12.074;2022-12-11T13:04:33;96839.06;;;2.50;54.51
2841;BME280;53423;49.224;12.074;2022-12-11T13:07:26;96843.81;;;2.45;54.34
2841;BME280;53423;49.224;12.074;2022-12-11T13:10:02;96842.34;;;2.52;54.34
2841;BME280;53423;49.224;12.074;2022-12-11T13:12:41;96844.78;;;2.44;55.29
2841;BME280;53423;49.224;12.074;2022-12-11T13:15:23;96839.63;;;2.54;55.27
2841;BME280;53423;49.224;12.074;2022-12-11T13:17:51;96840.44;;;2.45;55.47
2841;BME280;53423;49.224;12.074;2022-12-11T13:20:21;96841.50;;;2.42;54.90
2841;BME280;53423;49.224;12.074;2022-12-11T13:22:54;96841.25;;;2.26;55.71
2841;BME280;53423;49.224;12.074;2022-12-11T13:25:26;96842.44;;;2.22;55.86
2841;BME280;53423;49.224;12.074;2022-12-11T13:28:04;96843.97;;;2.34;55.78
2841;BME280;53423;49.224;12.074;2022-12-11T13:30:32;96840.31;;;2.46;55.56